createdAt,value
2022-11-18T00:02:16.288Z,39.53
2022-11-18T00:04:42.931Z,41.97
2022-11-18T00:07:09.572Z,39.73
2022-11-18T00:09:36.206Z,40.27
2022-11-18T00:12:21.751Z,45.63
2022-11-18T00:14:48.435Z,37.93
2022-11-18T00:17:15.106Z,39.57
2022-11-18T00:19:41.780Z,39.37
2022-11-18T00:22:12.671Z,38.23
2022-11-18T00:24:39.380Z,39.00
2022-11-18T00:27:06.099Z,38.70
2022-11-18T00:29:33.033Z,37.57
2022-11-18T00:31:59.784Z,38.33
2022-11-18T00:34:26.994Z,38.37
2022-11-18T00:36:53.833Z,37.13
2022-11-18T00:39:21.510Z,36.93
2022-11-18T00:42:07.289Z,38.93
2022-11-18T00:44:36.214Z,36.80
2022-11-18T00:47:03.073Z,36.03
2022-11-18T00:49:29.898Z,36.20
2022-11-18T00:51:56.628Z,37.70
2022-11-18T00:54:23.319Z,35.93
2022-11-18T00:56:50.095Z,34.53
2022-11-18T00:59:17.229Z,34.63
2022-11-18T01:01:44.892Z,40.77
2022-11-18T01:04:12.069Z,38.60
2022-11-18T01:06:38.770Z,34.07
2022-11-18T01:09:06.854Z,33.30
2022-11-18T01:11:52.521Z,34.00
2022-11-18T01:14:19.473Z,33.67
2022-11-18T01:16:51.248Z,34.07
2022-11-18T01:19:19.020Z,35.63
2022-11-18T01:21:46.065Z,34.80
2022-11-18T01:24:13.169Z,36.43
2022-11-18T01:26:39.863Z,36.07
2022-11-18T01:29:06.947Z,36.27
2022-11-18T01:31:33.646Z,35.87
2022-11-18T01:34:00.366Z,35.57
2022-11-18T01:36:28.028Z,37.80
2022-11-18T01:38:55.717Z,37.37
2022-11-18T01:41:25.651Z,42.87
2022-11-18T01:44:02.129Z,42.40
2022-11-18T01:46:31.648Z,37.63
2022-11-18T01:49:11.481Z,41.10
2022-11-18T01:51:46.563Z,39.97
2022-11-18T01:54:21.193Z,37.33
2022-11-18T01:56:52.588Z,37.80
2022-11-18T01:59:23.636Z,35.07
2022-11-18T02:01:52.131Z,35.53
2022-11-18T02:04:21.530Z,37.87
2022-11-18T02:06:48.662Z,33.80
2022-11-18T02:09:16.898Z,33.27
2022-11-18T02:11:56.666Z,32.97
2022-11-18T02:14:28.033Z,32.03
2022-11-18T02:17:12.782Z,31.83
2022-11-18T02:20:12.239Z,33.83
2022-11-18T02:23:03.381Z,32.50
2022-11-18T02:26:00.893Z,37.07
2022-11-18T02:29:04.681Z,31.77
2022-11-18T02:31:52.453Z,34.63
2022-11-18T02:34:46.990Z,38.60
2022-11-18T02:37:42.159Z,36.23
2022-11-18T02:40:15.046Z,34.90
2022-11-18T02:42:44.725Z,33.03
2022-11-18T02:45:16.692Z,33.07
2022-11-18T02:47:46.875Z,32.60
2022-11-18T02:50:18.758Z,32.07
2022-11-18T02:52:47.632Z,34.23
2022-11-18T02:55:16.008Z,37.07
2022-11-18T02:57:46.060Z,33.23
2022-11-18T03:00:13.405Z,29.80
2022-11-18T03:02:50.420Z,29.17
2022-11-18T03:05:27.384Z,29.77
2022-11-18T03:08:06.517Z,32.20
2022-11-18T03:10:42.393Z,30.80
2022-11-18T03:13:20.576Z,28.00
2022-11-18T03:15:53.354Z,31.37
2022-11-18T03:18:54.609Z,29.27
2022-11-18T03:21:31.420Z,33.63
2022-11-18T03:24:14.591Z,31.20
2022-11-18T03:26:48.962Z,32.33
2022-11-18T03:29:23.674Z,32.40
2022-11-18T03:31:55.708Z,34.00
2022-11-18T03:34:34.763Z,31.90
2022-11-18T03:37:10.254Z,32.20
2022-11-18T03:39:42.447Z,31.00
2022-11-18T03:42:14.503Z,34.63
2022-11-18T03:44:49.671Z,33.83
2022-11-18T03:47:33.450Z,32.13
2022-11-18T03:50:12.630Z,37.90
2022-11-18T03:52:40.439Z,34.57
2022-11-18T03:55:14.122Z,37.07
2022-11-18T03:57:48.547Z,32.70
2022-11-18T04:00:17.883Z,36.70
2022-11-18T04:02:45.317Z,35.97
2022-11-18T04:05:14.655Z,35.13
2022-11-18T04:07:58.883Z,38.27
2022-11-18T04:10:37.768Z,35.43
2022-11-18T04:13:25.208Z,37.30
2022-11-18T04:15:53.813Z,36.70
2022-11-18T04:18:20.740Z,38.40
2022-11-18T04:20:47.541Z,41.70
2022-11-18T04:23:14.248Z,39.63
2022-11-18T04:25:40.987Z,40.77
2022-11-18T04:28:07.697Z,38.17
2022-11-18T04:30:35.776Z,43.27
2022-11-18T04:33:02.540Z,40.50
2022-11-18T04:35:29.487Z,38.03
2022-11-18T04:37:56.170Z,36.40
2022-11-18T04:40:22.988Z,39.70
2022-11-18T04:42:49.725Z,37.00
2022-11-18T04:45:16.419Z,37.43
2022-11-18T04:47:43.181Z,37.50
2022-11-18T04:50:10.141Z,39.73
2022-11-18T04:52:36.867Z,38.67
2022-11-18T04:55:03.904Z,41.90
2022-11-18T04:57:30.649Z,39.40
2022-11-18T04:59:57.338Z,42.73
2022-11-18T05:02:24.097Z,35.90
2022-11-18T05:04:50.780Z,37.17
2022-11-18T05:07:17.552Z,37.27
2022-11-18T05:09:44.376Z,40.73
2022-11-18T05:12:33.572Z,38.93
2022-11-18T05:15:01.290Z,41.13
2022-11-18T05:17:28.408Z,38.87
2022-11-18T05:19:55.292Z,38.70
2022-11-18T05:22:22.039Z,36.63
2022-11-18T05:24:49.244Z,39.70
2022-11-18T05:27:16.073Z,38.33
2022-11-18T05:29:42.864Z,37.27
2022-11-18T05:32:09.841Z,37.67
2022-11-18T05:34:36.604Z,34.97
2022-11-18T05:37:03.450Z,40.70
2022-11-18T05:39:30.179Z,37.47
2022-11-18T05:42:16.476Z,40.43
2022-11-18T05:44:43.266Z,36.00
2022-11-18T05:47:10.204Z,42.17
2022-11-18T05:49:36.945Z,39.97
2022-11-18T05:52:04.091Z,41.13
2022-11-18T05:54:31.624Z,40.03
2022-11-18T05:56:58.373Z,36.60
2022-11-18T05:59:25.230Z,37.13
2022-11-18T06:01:59.891Z,36.20
2022-11-18T06:04:42.737Z,35.13
2022-11-18T06:07:20.247Z,44.50
2022-11-18T06:09:51.020Z,36.27
2022-11-18T06:12:22.248Z,39.80
2022-11-18T06:14:59.707Z,34.17
2022-11-18T06:17:34.081Z,41.93
2022-11-18T06:20:02.392Z,37.47
2022-11-18T06:22:29.513Z,39.60
2022-11-18T06:24:56.278Z,38.67
2022-11-18T06:27:23.149Z,41.03
2022-11-18T06:29:49.920Z,42.07
2022-11-18T06:32:16.648Z,46.23
2022-11-18T06:34:43.326Z,42.27
2022-11-18T06:37:18.389Z,43.67
2022-11-18T06:39:45.156Z,46.17
2022-11-18T06:42:32.085Z,42.87
2022-11-18T06:44:59.147Z,47.10
2022-11-18T06:47:25.860Z,40.97
2022-11-18T06:49:52.549Z,44.17
2022-11-18T06:52:19.259Z,52.97
2022-11-18T06:54:45.933Z,43.10
2022-11-18T06:57:12.679Z,41.50
2022-11-18T06:59:39.717Z,37.80
2022-11-18T07:02:06.789Z,45.20
2022-11-18T07:04:34.757Z,41.10
2022-11-18T07:07:01.566Z,41.83
2022-11-18T07:09:28.413Z,38.50
2022-11-18T07:11:55.255Z,40.70
2022-11-18T07:14:22.260Z,37.50
2022-11-18T07:16:48.936Z,44.77
2022-11-18T07:19:15.969Z,35.30
2022-11-18T07:21:43.469Z,32.00
2022-11-18T07:24:13.414Z,29.40
2022-11-18T07:26:40.318Z,28.10
2022-11-18T07:29:07.219Z,32.37
2022-11-18T07:31:37.584Z,30.93
2022-11-18T07:34:04.453Z,32.00
2022-11-18T07:36:35.588Z,29.83
2022-11-18T07:39:07.665Z,23.13
2022-11-18T07:41:35.293Z,26.03
2022-11-18T07:44:04.070Z,28.07
2022-11-18T07:46:33.454Z,29.27
2022-11-18T07:49:02.153Z,26.90
2022-11-18T07:51:32.620Z,28.23
2022-11-18T07:53:59.314Z,28.47
2022-11-18T07:56:26.108Z,30.10
2022-11-18T07:58:55.760Z,25.13
2022-11-18T08:01:31.046Z,27.70
2022-11-18T08:04:04.788Z,26.10
2022-11-18T08:06:34.061Z,28.13
2022-11-18T08:09:01.099Z,26.97
2022-11-18T08:11:27.842Z,26.53
2022-11-18T08:13:54.564Z,25.47
2022-11-18T08:16:23.722Z,24.23
2022-11-18T08:18:51.376Z,24.23
2022-11-18T08:21:20.210Z,24.90
2022-11-18T08:23:51.640Z,23.10
2022-11-18T08:26:19.012Z,24.43
2022-11-18T08:28:46.595Z,27.93
2022-11-18T08:31:24.420Z,20.97
2022-11-18T08:33:59.288Z,21.47
2022-11-18T08:36:28.476Z,23.63
2022-11-18T08:38:56.832Z,21.57
2022-11-18T08:41:35.609Z,24.37
2022-11-18T08:44:03.178Z,18.90
2022-11-18T08:46:30.356Z,17.97
2022-11-18T08:48:57.754Z,13.83
2022-11-18T08:51:24.733Z,14.40
2022-11-18T08:53:51.503Z,13.73
2022-11-18T08:56:20.714Z,11.70
2022-11-18T08:58:47.825Z,11.40
2022-11-18T09:01:14.582Z,12.50
2022-11-18T09:03:41.522Z,10.80
2022-11-18T09:06:24.277Z,14.17
2022-11-18T09:08:51.449Z,11.60
2022-11-18T09:11:21.022Z,14.07
2022-11-18T09:16:38.233Z,14.37
2022-11-18T09:19:24.893Z,11.87
2022-11-18T09:21:51.970Z,13.13
2022-11-18T09:24:19.182Z,10.80
2022-11-18T09:26:46.268Z,12.60
2022-11-18T09:29:13.052Z,11.93
2022-11-18T09:31:39.731Z,10.60
2022-11-18T09:34:06.516Z,9.43
2022-11-18T09:36:33.515Z,9.30
2022-11-18T09:39:00.282Z,11.00
2022-11-18T09:41:47.756Z,10.73
2022-11-18T09:44:30.713Z,10.27
2022-11-18T09:47:19.190Z,10.97
2022-11-18T09:49:46.715Z,13.67
2022-11-18T09:52:36.163Z,9.37
2022-11-18T09:55:14.976Z,9.17
2022-11-18T09:57:49.212Z,10.00
2022-11-18T10:00:21.037Z,9.03
2022-11-18T10:03:06.370Z,9.23
2022-11-18T10:05:45.740Z,11.73
2022-11-18T10:08:20.761Z,17.57
2022-11-18T10:11:02.260Z,8.77
2022-11-18T10:13:48.813Z,8.20
2022-11-18T10:16:35.611Z,9.80
2022-11-18T10:19:16.991Z,10.97
2022-11-18T10:22:00.643Z,9.63
2022-11-18T10:24:35.320Z,9.90
2022-11-18T10:27:02.796Z,8.43
2022-11-18T10:29:29.562Z,9.43
2022-11-18T10:32:04.762Z,14.77
2022-11-18T10:34:33.379Z,8.20
2022-11-18T10:37:06.191Z,8.50
2022-11-18T10:39:33.237Z,10.10
2022-11-18T10:42:03.595Z,10.10
2022-11-18T10:44:41.639Z,9.03
2022-11-18T10:47:27.648Z,9.87
2022-11-18T10:49:57.066Z,9.90
2022-11-18T10:52:23.977Z,11.67
2022-11-18T10:55:26.464Z,8.80
2022-11-18T10:58:07.832Z,6.87
2022-11-18T11:00:42.598Z,8.67
2022-11-18T11:03:37.928Z,8.77
2022-11-18T11:06:24.006Z,7.03
2022-11-18T11:08:56.256Z,7.20
2022-11-18T11:11:40.180Z,9.07
2022-11-18T11:14:19.587Z,8.83
2022-11-18T11:17:03.909Z,9.10
2022-11-18T11:19:52.495Z,9.00
2022-11-18T11:22:19.604Z,10.03
2022-11-18T11:24:46.798Z,7.83
2022-11-18T11:30:22.947Z,8.03
2022-11-18T11:33:13.913Z,6.70
2022-11-18T11:36:15.742Z,8.10
2022-11-18T11:39:23.645Z,9.27
2022-11-18T11:42:18.313Z,12.03
2022-11-18T11:45:07.339Z,10.57
2022-11-18T11:47:58.582Z,12.60
2022-11-18T11:51:00.139Z,9.30
2022-11-18T11:54:12.359Z,10.57
2022-11-18T11:56:46.593Z,11.80
2022-11-18T11:59:37.775Z,10.33
2022-11-18T12:02:41.992Z,10.53
2022-11-18T12:05:17.813Z,9.33
2022-11-18T12:07:55.975Z,12.33
2022-11-18T12:11:05.747Z,18.07
2022-11-18T12:13:36.862Z,19.97
2022-11-18T12:16:12.717Z,10.47
2022-11-18T12:19:03.830Z,10.17
2022-11-18T12:21:45.609Z,11.87
2022-11-18T12:24:18.259Z,8.97
2022-11-18T12:26:47.193Z,10.87
2022-11-18T12:29:20.042Z,8.97
2022-11-18T12:31:55.215Z,10.00
2022-11-18T12:34:43.245Z,9.77
2022-11-18T12:37:29.952Z,7.77
2022-11-18T12:39:57.337Z,7.00
2022-11-18T12:42:54.043Z,11.83
2022-11-18T12:45:48.554Z,8.03
2022-11-18T12:48:27.606Z,11.77
2022-11-18T12:50:59.785Z,7.20
2022-11-18T12:53:46.530Z,8.60
2022-11-18T12:56:19.711Z,8.20
2022-11-18T12:58:53.009Z,9.43
2022-11-18T13:01:31.885Z,8.87
2022-11-18T13:04:22.497Z,9.80
2022-11-18T13:06:53.070Z,10.00
2022-11-18T13:09:30.257Z,8.83
2022-11-18T13:12:01.211Z,8.77
2022-11-18T13:14:58.436Z,8.57
2022-11-18T13:17:46.901Z,8.17
2022-11-18T13:20:24.150Z,9.27
2022-11-18T13:23:14.997Z,8.20
2022-11-18T13:25:45.108Z,8.23
2022-11-18T13:28:20.652Z,7.73
2022-11-18T13:31:19.129Z,15.67
2022-11-18T13:33:46.104Z,11.40
2022-11-18T13:36:23.548Z,13.70
2022-11-18T13:38:58.604Z,7.23
2022-11-18T13:41:32.794Z,9.03
2022-11-18T13:44:12.812Z,9.27
2022-11-18T13:46:41.183Z,7.83
2022-11-18T13:49:16.669Z,7.73
2022-11-18T13:51:43.802Z,8.70
2022-11-18T13:54:15.615Z,11.23
2022-11-18T13:56:42.402Z,9.87
2022-11-18T13:59:18.617Z,13.80
2022-11-18T14:01:47.448Z,8.23
2022-11-18T14:04:22.744Z,6.17
2022-11-18T14:06:50.315Z,9.40
2022-11-18T14:09:26.995Z,9.10
2022-11-18T14:12:29.060Z,7.93
2022-11-18T14:15:42.137Z,6.80
2022-11-18T14:18:27.907Z,7.50
2022-11-18T14:20:55.315Z,7.57
2022-11-18T14:23:42.473Z,8.00
2022-11-18T14:26:09.824Z,7.73
2022-11-18T14:28:38.056Z,10.43
2022-11-18T14:31:27.292Z,9.23
2022-11-18T14:34:12.612Z,8.90
2022-11-18T14:36:40.988Z,11.53
2022-11-18T14:39:27.005Z,11.57
2022-11-18T14:41:54.934Z,8.07
2022-11-18T14:44:24.340Z,9.77
2022-11-18T14:47:03.954Z,12.63
2022-11-18T14:49:35.206Z,8.20
2022-11-18T14:52:02.958Z,12.00
2022-11-18T14:54:30.057Z,11.00
2022-11-18T14:57:01.243Z,9.40
2022-11-18T14:59:28.580Z,12.57
2022-11-18T15:01:56.420Z,8.77
2022-11-18T15:04:23.540Z,16.00
2022-11-18T15:06:50.235Z,14.57
2022-11-18T15:09:17.004Z,16.30
2022-11-18T15:11:44.690Z,11.20
2022-11-18T15:14:11.642Z,11.27
2022-11-18T15:16:38.316Z,8.67
2022-11-18T15:19:06.591Z,12.73
2022-11-18T15:21:33.624Z,12.47
2022-11-18T15:24:00.469Z,8.97
2022-11-18T15:26:35.948Z,9.53
2022-11-18T15:29:02.721Z,12.70
2022-11-18T15:31:29.428Z,12.10
2022-11-18T15:33:59.802Z,13.73
2022-11-18T15:36:29.511Z,14.03
2022-11-18T15:38:56.483Z,20.50
2022-11-18T15:41:29.447Z,19.67
2022-11-18T15:43:58.052Z,16.97
2022-11-18T15:46:27.489Z,16.10
2022-11-18T15:48:55.959Z,15.73
2022-11-18T15:51:24.127Z,22.40
2022-11-18T15:53:51.376Z,20.40
2022-11-18T15:56:23.614Z,18.57
2022-11-18T15:58:59.124Z,16.90
2022-11-18T16:01:27.900Z,17.87
2022-11-18T16:03:54.889Z,14.53
2022-11-18T16:06:22.346Z,15.93
2022-11-18T16:08:52.197Z,18.43
2022-11-18T16:11:41.241Z,14.30
2022-11-18T16:14:10.752Z,16.00
2022-11-18T16:16:39.452Z,16.97
2022-11-18T16:19:08.722Z,19.40
2022-11-18T16:21:38.889Z,19.07
2022-11-18T16:24:07.829Z,24.37
2022-11-18T16:26:35.217Z,24.83
2022-11-18T16:29:02.169Z,21.03
2022-11-18T16:31:41.040Z,23.70
2022-11-18T16:34:13.704Z,26.03
2022-11-18T16:36:42.280Z,22.83
2022-11-18T16:39:11.724Z,20.37
2022-11-18T16:41:39.656Z,17.73
2022-11-18T16:44:08.947Z,20.03
2022-11-18T16:46:38.845Z,21.30
2022-11-18T16:49:06.853Z,19.57
2022-11-18T16:51:36.472Z,20.20
2022-11-18T16:54:05.708Z,20.87
2022-11-18T16:56:37.194Z,21.03
2022-11-18T16:59:06.805Z,23.47
2022-11-18T17:01:34.276Z,23.53
2022-11-18T17:04:01.501Z,19.50
2022-11-18T17:06:30.162Z,18.67
2022-11-18T17:08:58.308Z,18.20
2022-11-18T17:11:25.437Z,19.53
2022-11-18T17:13:57.694Z,17.70
2022-11-18T17:16:26.060Z,21.30
2022-11-18T17:18:59.995Z,20.73
2022-11-18T17:21:28.142Z,19.93
2022-11-18T17:23:55.705Z,22.53
2022-11-18T17:26:27.892Z,22.33
2022-11-18T17:28:58.593Z,26.50
2022-11-18T17:31:25.866Z,23.70
2022-11-18T17:33:54.657Z,23.17
2022-11-18T17:36:23.726Z,26.10
2022-11-18T17:38:52.849Z,27.50
2022-11-18T17:41:40.668Z,22.67
2022-11-18T17:44:09.138Z,21.33
2022-11-18T17:46:38.296Z,21.40
2022-11-18T17:49:10.760Z,22.80
2022-11-18T17:51:37.629Z,22.90
2022-11-18T17:54:04.768Z,23.57
2022-11-18T17:56:31.800Z,23.83
2022-11-18T17:58:58.595Z,26.07
2022-11-18T18:01:25.493Z,23.00
2022-11-18T18:03:52.406Z,24.43
2022-11-18T18:06:22.761Z,25.10
2022-11-18T18:08:49.432Z,24.13
2022-11-18T18:11:18.708Z,24.97
2022-11-18T18:14:04.516Z,27.57
2022-11-18T18:16:32.506Z,25.60
2022-11-18T18:19:02.775Z,28.17
2022-11-18T18:21:29.588Z,26.63
2022-11-18T18:23:56.645Z,28.40
2022-11-18T18:26:28.293Z,29.23
2022-11-18T18:28:58.696Z,26.90
2022-11-18T18:31:26.314Z,28.67
2022-11-18T18:33:55.194Z,30.63
2022-11-18T18:36:22.941Z,28.87
2022-11-18T18:38:49.671Z,29.00
2022-11-18T18:41:22.187Z,30.33
2022-11-18T18:43:50.123Z,26.60
2022-11-18T18:46:32.366Z,28.67
2022-11-18T18:49:11.864Z,26.63
2022-11-18T18:51:40.551Z,27.10
2022-11-18T18:54:09.807Z,23.83
2022-11-18T18:56:38.465Z,24.43
2022-11-18T18:59:05.358Z,26.47
2022-11-18T19:01:33.754Z,22.80
2022-11-18T19:04:04.115Z,21.57
2022-11-18T19:06:59.288Z,20.97
2022-11-18T19:09:26.568Z,23.70
2022-11-18T19:12:12.312Z,22.43
2022-11-18T19:14:39.468Z,21.60
2022-11-18T19:17:10.679Z,19.87
2022-11-18T19:19:57.438Z,19.70
2022-11-18T19:22:24.829Z,18.60
2022-11-18T19:24:51.927Z,22.40
2022-11-18T19:27:19.854Z,21.00
2022-11-18T19:29:46.989Z,24.80
2022-11-18T19:32:14.308Z,18.73
2022-11-18T19:34:41.030Z,23.47
2022-11-18T19:37:07.732Z,23.93
2022-11-18T19:39:35.261Z,21.47
2022-11-18T19:42:02.198Z,18.57
2022-11-18T19:44:29.251Z,21.47
2022-11-18T19:46:55.977Z,21.60
2022-11-18T19:49:22.913Z,22.80
2022-11-18T19:51:50.065Z,22.20
2022-11-18T19:54:16.800Z,20.90
2022-11-18T19:56:43.610Z,19.23
2022-11-18T19:59:12.444Z,25.20
2022-11-18T20:01:39.427Z,21.63
2022-11-18T20:04:06.224Z,24.90
2022-11-18T20:06:37.345Z,20.90
2022-11-18T20:09:08.007Z,20.43
2022-11-18T20:11:35.060Z,20.17
2022-11-18T20:14:01.948Z,30.10
2022-11-18T20:16:28.707Z,24.37
2022-11-18T20:19:03.924Z,24.87
2022-11-18T20:21:34.174Z,28.93
2022-11-18T20:24:02.545Z,26.60
2022-11-18T20:26:38.867Z,33.80
2022-11-18T20:29:08.013Z,23.60
2022-11-18T20:31:48.144Z,21.47
2022-11-18T20:34:17.659Z,19.53
2022-11-18T20:36:46.227Z,16.27
2022-11-18T20:39:23.156Z,18.47
2022-11-18T20:42:09.029Z,18.17
2022-11-18T20:44:35.921Z,16.23
2022-11-18T20:47:03.812Z,17.73
2022-11-18T20:49:30.683Z,15.90
2022-11-18T20:51:57.460Z,15.43
2022-11-18T20:54:24.128Z,16.47
2022-11-18T20:56:50.891Z,18.87
2022-11-18T20:59:18.084Z,19.60
2022-11-18T21:01:44.939Z,16.57
2022-11-18T21:04:12.253Z,14.93
2022-11-18T21:06:39.020Z,17.27
2022-11-18T21:09:08.009Z,21.83
2022-11-18T21:11:36.048Z,24.97
2022-11-18T21:14:25.396Z,25.27
2022-11-18T21:16:55.122Z,33.97
2022-11-18T21:19:22.743Z,27.57
2022-11-18T21:21:52.016Z,23.87
2022-11-18T21:24:28.394Z,22.80
2022-11-18T21:26:55.906Z,26.37
2022-11-18T21:29:24.021Z,26.10
2022-11-18T21:31:51.626Z,27.27
2022-11-18T21:34:18.644Z,28.00
2022-11-18T21:36:50.326Z,24.40
2022-11-18T21:39:24.818Z,23.10
2022-11-18T21:41:56.373Z,20.17
2022-11-18T21:44:25.063Z,22.80
2022-11-18T21:46:51.975Z,19.87
2022-11-18T21:49:18.976Z,22.90
2022-11-18T21:51:46.123Z,20.33
2022-11-18T21:54:15.644Z,20.50
2022-11-18T21:56:42.337Z,23.03
2022-11-18T21:59:09.098Z,19.77
2022-11-18T22:01:35.739Z,20.23
2022-11-18T22:04:04.598Z,25.97
2022-11-18T22:06:34.055Z,20.73
2022-11-18T22:09:02.672Z,19.97
2022-11-18T22:11:29.347Z,20.33
2022-11-18T22:13:56.249Z,23.47
2022-11-18T22:16:24.547Z,20.67
2022-11-18T22:18:58.128Z,20.47
2022-11-18T22:21:28.141Z,20.87
2022-11-18T22:23:59.735Z,20.60
2022-11-18T22:26:26.500Z,19.13
2022-11-18T22:28:57.556Z,21.20
2022-11-18T22:31:26.550Z,19.57
2022-11-18T22:33:54.405Z,19.77
2022-11-18T22:36:22.557Z,20.00
2022-11-18T22:38:52.804Z,18.20
2022-11-18T22:41:43.063Z,16.80
2022-11-18T22:44:14.772Z,17.93
2022-11-18T22:46:44.842Z,19.43
2022-11-18T22:49:12.706Z,23.27
2022-11-18T22:51:42.340Z,31.60
2022-11-18T22:54:37.239Z,25.13
2022-11-18T22:56:56.509Z,28.70
2022-11-18T22:59:23.898Z,30.07
2022-11-18T23:01:51.585Z,29.40
2022-11-18T23:04:18.792Z,27.00
2022-11-18T23:06:45.459Z,25.13
2022-11-18T23:09:12.241Z,27.27
2022-11-18T23:11:58.557Z,25.20
2022-11-18T23:14:25.559Z,24.63
2022-11-18T23:16:52.503Z,27.37
2022-11-18T23:19:19.731Z,25.73
2022-11-18T23:21:46.853Z,31.10
2022-11-18T23:24:18.238Z,27.43
2022-11-18T23:26:45.588Z,25.77
2022-11-18T23:29:13.250Z,27.33
2022-11-18T23:31:44.891Z,31.30
2022-11-18T23:34:13.414Z,31.00
2022-11-18T23:36:41.018Z,27.97
2022-11-18T23:39:07.852Z,30.57
2022-11-18T23:41:34.763Z,28.90
2022-11-18T23:44:02.228Z,28.03
2022-11-18T23:46:29.127Z,28.83
2022-11-18T23:48:56.065Z,26.20
2022-11-18T23:51:24.389Z,32.37
2022-11-18T23:53:57.974Z,34.20
2022-11-18T23:56:26.908Z,33.73
2022-11-18T23:58:56.229Z,30.83
